sensor_id;sensor_type;location;lat;lon;timestamp;P1;durP1;ratioP1;P2;durP2;ratioP2
11731;SDS011;5922;53.734;10.258;2024-03-23T00:54:05;21.43;;;4.77;;
11731;SDS011;5922;53.734;10.258;2024-03-23T00:56:31;19.03;;;4.03;;
11731;SDS011;5922;53.734;10.258;2024-03-23T00:58:58;24.70;;;4.50;;
11731;SDS011;5922;53.734;10.258;2024-03-23T01:01:24;19.73;;;4.00;;
11731;SDS011;5922;53.734;10.258;2024-03-23T01:03:52;20.13;;;4.73;;
11731;SDS011;5922;53.734;10.258;2024-03-23T01:06:18;18.07;;;4.87;;
11731;SDS011;5922;53.734;10.258;2024-03-23T01:08:46;20.87;;;4.60;;
11731;SDS011;5922;53.734;10.258;2024-03-23T01:11:13;18.37;;;4.83;;
11731;SDS011;5922;53.734;10.258;2024-03-23T01:13:40;22.00;;;4.47;;
11731;SDS011;5922;53.734;10.258;2024-03-23T01:16:06;18.63;;;4.40;;
11731;SDS011;5922;53.734;10.258;2024-03-23T01:18:33;17.07;;;4.63;;
11731;SDS011;5922;53.734;10.258;2024-03-23T01:20:59;15.83;;;4.27;;
11731;SDS011;5922;53.734;10.258;2024-03-23T01:23:27;24.17;;;4.30;;
11731;SDS011;5922;53.734;10.258;2024-03-23T01:25:54;17.00;;;4.10;;
11731;SDS011;5922;53.734;10.258;2024-03-23T01:28:22;25.20;;;4.67;;
11731;SDS011;5922;53.734;10.258;2024-03-23T01:30:48;20.27;;;4.47;;
11731;SDS011;5922;53.734;10.258;2024-03-23T01:33:16;21.37;;;5.17;;
11731;SDS011;5922;53.734;10.258;2024-03-23T01:35:42;16.07;;;4.03;;
11731;SDS011;5922;53.734;10.258;2024-03-23T01:38:09;22.90;;;4.30;;
11731;SDS011;5922;53.734;10.258;2024-03-23T01:40:35;18.70;;;4.67;;
11731;SDS011;5922;53.734;10.258;2024-03-23T01:43:05;23.50;;;4.60;;
11731;SDS011;5922;53.734;10.258;2024-03-23T01:45:31;24.67;;;5.10;;
11731;SDS011;5922;53.734;10.258;2024-03-23T01:47:58;16.87;;;4.43;;
11731;SDS011;5922;53.734;10.258;2024-03-23T01:50:24;23.97;;;4.27;;
11731;SDS011;5922;53.734;10.258;2024-03-23T01:52:52;17.93;;;4.03;;
11731;SDS011;5922;53.734;10.258;2024-03-23T01:55:19;25.33;;;5.10;;
11731;SDS011;5922;53.734;10.258;2024-03-23T01:57:46;18.00;;;4.47;;
11731;SDS011;5922;53.734;10.258;2024-03-23T02:00:14;18.23;;;4.43;;
11731;SDS011;5922;53.734;10.258;2024-03-23T02:02:42;23.23;;;5.47;;
11731;SDS011;5922;53.734;10.258;2024-03-23T02:05:09;20.30;;;5.13;;
11731;SDS011;5922;53.734;10.258;2024-03-23T02:07:37;24.03;;;5.23;;
11731;SDS011;5922;53.734;10.258;2024-03-23T02:10:03;21.27;;;4.37;;
11731;SDS011;5922;53.734;10.258;2024-03-23T02:12:30;17.37;;;4.70;;
11731;SDS011;5922;53.734;10.258;2024-03-23T02:14:57;22.47;;;4.57;;
11731;SDS011;5922;53.734;10.258;2024-03-23T02:17:25;21.33;;;4.33;;
11731;SDS011;5922;53.734;10.258;2024-03-23T02:19:52;22.67;;;4.50;;
11731;SDS011;5922;53.734;10.258;2024-03-23T02:22:19;20.13;;;4.13;;
11731;SDS011;5922;53.734;10.258;2024-03-23T02:24:47;25.10;;;4.37;;
11731;SDS011;5922;53.734;10.258;2024-03-23T02:27:14;22.17;;;4.57;;
11731;SDS011;5922;53.734;10.258;2024-03-23T02:29:40;18.60;;;4.20;;
11731;SDS011;5922;53.734;10.258;2024-03-23T02:32:07;18.47;;;4.70;;
11731;SDS011;5922;53.734;10.258;2024-03-23T02:34:34;20.13;;;4.37;;
11731;SDS011;5922;53.734;10.258;2024-03-23T02:37:01;20.20;;;4.20;;
11731;SDS011;5922;53.734;10.258;2024-03-23T02:39:27;17.43;;;4.30;;
11731;SDS011;5922;53.734;10.258;2024-03-23T02:41:56;20.40;;;5.00;;
11731;SDS011;5922;53.734;10.258;2024-03-23T02:44:22;19.97;;;5.03;;
11731;SDS011;5922;53.734;10.258;2024-03-23T02:46:49;14.10;;;4.03;;
11731;SDS011;5922;53.734;10.258;2024-03-23T02:49:16;19.17;;;4.40;;
11731;SDS011;5922;53.734;10.258;2024-03-23T02:51:43;21.13;;;5.07;;
11731;SDS011;5922;53.734;10.258;2024-03-23T02:54:10;18.20;;;4.37;;
11731;SDS011;5922;53.734;10.258;2024-03-23T02:56:37;20.73;;;4.60;;
11731;SDS011;5922;53.734;10.258;2024-03-23T02:59:05;16.00;;;4.53;;
11731;SDS011;5922;53.734;10.258;2024-03-23T03:01:33;19.43;;;4.67;;
11731;SDS011;5922;53.734;10.258;2024-03-23T03:04:00;21.87;;;4.80;;
11731;SDS011;5922;53.734;10.258;2024-03-23T03:06:27;20.47;;;4.97;;
11731;SDS011;5922;53.734;10.258;2024-03-23T03:08:53;20.17;;;4.27;;
11731;SDS011;5922;53.734;10.258;2024-03-23T03:11:21;25.07;;;5.50;;
11731;SDS011;5922;53.734;10.258;2024-03-23T03:13:47;19.40;;;4.77;;
11731;SDS011;5922;53.734;10.258;2024-03-23T03:16:15;17.63;;;3.90;;
11731;SDS011;5922;53.734;10.258;2024-03-23T03:18:42;17.97;;;4.27;;
11731;SDS011;5922;53.734;10.258;2024-03-23T03:21:11;17.87;;;4.37;;
11731;SDS011;5922;53.734;10.258;2024-03-23T03:23:37;21.10;;;4.73;;
11731;SDS011;5922;53.734;10.258;2024-03-23T03:26:05;16.67;;;4.00;;
11731;SDS011;5922;53.734;10.258;2024-03-23T03:28:31;17.00;;;4.60;;
11731;SDS011;5922;53.734;10.258;2024-03-23T03:30:58;20.00;;;4.40;;
11731;SDS011;5922;53.734;10.258;2024-03-23T03:33:26;22.47;;;4.50;;
11731;SDS011;5922;53.734;10.258;2024-03-23T03:35:54;18.57;;;4.83;;
11731;SDS011;5922;53.734;10.258;2024-03-23T03:38:20;20.90;;;4.67;;
11731;SDS011;5922;53.734;10.258;2024-03-23T03:40:48;22.20;;;5.17;;
11731;SDS011;5922;53.734;10.258;2024-03-23T03:43:14;17.17;;;4.80;;
11731;SDS011;5922;53.734;10.258;2024-03-23T03:45:41;16.07;;;4.00;;
11731;SDS011;5922;53.734;10.258;2024-03-23T03:48:07;17.50;;;5.00;;
11731;SDS011;5922;53.734;10.258;2024-03-23T03:50:36;23.63;;;4.97;;
11731;SDS011;5922;53.734;10.258;2024-03-23T03:53:02;16.00;;;4.33;;
11731;SDS011;5922;53.734;10.258;2024-03-23T03:55:30;18.50;;;4.43;;
11731;SDS011;5922;53.734;10.258;2024-03-23T03:57:57;16.37;;;4.10;;
11731;SDS011;5922;53.734;10.258;2024-03-23T04:00:24;16.57;;;4.00;;
11731;SDS011;5922;53.734;10.258;2024-03-23T04:02:50;18.53;;;4.47;;
11731;SDS011;5922;53.734;10.258;2024-03-23T04:05:18;23.10;;;4.83;;
11731;SDS011;5922;53.734;10.258;2024-03-23T04:07:46;15.37;;;4.00;;
11731;SDS011;5922;53.734;10.258;2024-03-23T04:10:13;19.40;;;4.97;;
11731;SDS011;5922;53.734;10.258;2024-03-23T04:12:40;17.67;;;4.70;;
11731;SDS011;5922;53.734;10.258;2024-03-23T04:15:07;18.57;;;4.50;;
11731;SDS011;5922;53.734;10.258;2024-03-23T04:17:33;25.33;;;4.73;;
11731;SDS011;5922;53.734;10.258;2024-03-23T04:20:01;13.47;;;3.83;;
11731;SDS011;5922;53.734;10.258;2024-03-23T04:22:34;18.27;;;4.73;;
11731;SDS011;5922;53.734;10.258;2024-03-23T04:25:05;17.30;;;4.47;;
11731;SDS011;5922;53.734;10.258;2024-03-23T04:27:39;14.27;;;4.20;;
11731;SDS011;5922;53.734;10.258;2024-03-23T04:30:12;15.87;;;4.33;;
11731;SDS011;5922;53.734;10.258;2024-03-23T04:32:41;15.07;;;4.00;;
11731;SDS011;5922;53.734;10.258;2024-03-23T04:35:11;19.00;;;4.70;;
11731;SDS011;5922;53.734;10.258;2024-03-23T04:37:38;23.50;;;4.77;;
11731;SDS011;5922;53.734;10.258;2024-03-23T04:40:08;14.60;;;4.47;;
11731;SDS011;5922;53.734;10.258;2024-03-23T04:42:38;19.10;;;4.93;;
11731;SDS011;5922;53.734;10.258;2024-03-23T04:45:06;11.50;;;3.90;;
11731;SDS011;5922;53.734;10.258;2024-03-23T04:47:37;14.83;;;3.80;;
11731;SDS011;5922;53.734;10.258;2024-03-23T04:50:34;14.90;;;3.87;;
11731;SDS011;5922;53.734;10.258;2024-03-23T04:53:03;21.27;;;4.60;;
11731;SDS011;5922;53.734;10.258;2024-03-23T04:55:32;19.63;;;4.73;;
11731;SDS011;5922;53.734;10.258;2024-03-23T04:57:58;18.30;;;4.77;;
11731;SDS011;5922;53.734;10.258;2024-03-23T05:00:26;15.17;;;4.00;;
11731;SDS011;5922;53.734;10.258;2024-03-23T05:02:52;13.57;;;3.73;;
11731;SDS011;5922;53.734;10.258;2024-03-23T05:05:26;17.03;;;4.10;;
11731;SDS011;5922;53.734;10.258;2024-03-23T05:07:53;15.47;;;3.93;;
11731;SDS011;5922;53.734;10.258;2024-03-23T05:10:20;15.93;;;3.93;;
11731;SDS011;5922;53.734;10.258;2024-03-23T05:12:50;19.00;;;4.87;;
11731;SDS011;5922;53.734;10.258;2024-03-23T05:15:20;23.40;;;4.60;;
11731;SDS011;5922;53.734;10.258;2024-03-23T05:17:48;12.60;;;3.80;;
11731;SDS011;5922;53.734;10.258;2024-03-23T05:20:16;18.87;;;4.10;;
11731;SDS011;5922;53.734;10.258;2024-03-23T05:22:43;24.67;;;4.83;;
11731;SDS011;5922;53.734;10.258;2024-03-23T05:25:10;17.37;;;4.03;;
11731;SDS011;5922;53.734;10.258;2024-03-23T05:27:44;21.33;;;4.87;;
11731;SDS011;5922;53.734;10.258;2024-03-23T05:30:13;16.70;;;4.10;;
11731;SDS011;5922;53.734;10.258;2024-03-23T05:32:41;16.53;;;4.10;;
11731;SDS011;5922;53.734;10.258;2024-03-23T05:35:16;13.00;;;4.10;;
11731;SDS011;5922;53.734;10.258;2024-03-23T05:37:42;14.80;;;3.63;;
11731;SDS011;5922;53.734;10.258;2024-03-23T05:40:19;13.50;;;3.80;;
11731;SDS011;5922;53.734;10.258;2024-03-23T05:42:45;14.80;;;3.93;;
11731;SDS011;5922;53.734;10.258;2024-03-23T05:45:14;17.37;;;3.83;;
11731;SDS011;5922;53.734;10.258;2024-03-23T05:47:45;18.83;;;4.23;;
11731;SDS011;5922;53.734;10.258;2024-03-23T05:50:15;16.93;;;3.77;;
11731;SDS011;5922;53.734;10.258;2024-03-23T05:52:44;18.13;;;5.37;;
11731;SDS011;5922;53.734;10.258;2024-03-23T05:55:16;21.83;;;4.47;;
11731;SDS011;5922;53.734;10.258;2024-03-23T05:57:51;17.33;;;4.20;;
11731;SDS011;5922;53.734;10.258;2024-03-23T06:00:31;17.27;;;4.03;;
11731;SDS011;5922;53.734;10.258;2024-03-23T06:03:25;18.80;;;4.00;;
11731;SDS011;5922;53.734;10.258;2024-03-23T06:05:52;21.80;;;4.50;;
11731;SDS011;5922;53.734;10.258;2024-03-23T06:08:29;21.17;;;4.57;;
11731;SDS011;5922;53.734;10.258;2024-03-23T06:11:05;16.67;;;4.03;;
11731;SDS011;5922;53.734;10.258;2024-03-23T06:13:55;16.70;;;4.03;;
11731;SDS011;5922;53.734;10.258;2024-03-23T06:16:45;15.17;;;4.13;;
11731;SDS011;5922;53.734;10.258;2024-03-23T06:22:16;13.93;;;3.90;;
11731;SDS011;5922;53.734;10.258;2024-03-23T06:25:04;13.17;;;3.83;;
11731;SDS011;5922;53.734;10.258;2024-03-23T06:27:44;15.47;;;4.37;;
11731;SDS011;5922;53.734;10.258;2024-03-23T06:30:16;18.23;;;5.00;;
11731;SDS011;5922;53.734;10.258;2024-03-23T06:32:55;18.00;;;4.43;;
11731;SDS011;5922;53.734;10.258;2024-03-23T06:35:21;19.00;;;3.80;;
11731;SDS011;5922;53.734;10.258;2024-03-23T06:37:56;19.43;;;4.57;;
11731;SDS011;5922;53.734;10.258;2024-03-23T06:40:30;15.93;;;3.53;;
11731;SDS011;5922;53.734;10.258;2024-03-23T06:43:21;19.40;;;4.33;;
11731;SDS011;5922;53.734;10.258;2024-03-23T06:46:03;13.37;;;4.40;;
11731;SDS011;5922;53.734;10.258;2024-03-23T06:48:35;22.10;;;4.57;;
11731;SDS011;5922;53.734;10.258;2024-03-23T06:51:08;17.37;;;4.20;;
11731;SDS011;5922;53.734;10.258;2024-03-23T06:53:45;12.47;;;3.47;;
11731;SDS011;5922;53.734;10.258;2024-03-23T06:56:15;19.20;;;3.77;;
11731;SDS011;5922;53.734;10.258;2024-03-23T06:58:41;13.43;;;4.00;;
11731;SDS011;5922;53.734;10.258;2024-03-23T07:01:11;21.00;;;3.93;;
11731;SDS011;5922;53.734;10.258;2024-03-23T07:03:53;15.10;;;3.97;;
11731;SDS011;5922;53.734;10.258;2024-03-23T07:06:30;13.43;;;4.00;;
11731;SDS011;5922;53.734;10.258;2024-03-23T07:09:05;18.63;;;3.77;;
11731;SDS011;5922;53.734;10.258;2024-03-23T07:11:33;11.50;;;3.67;;
11731;SDS011;5922;53.734;10.258;2024-03-23T07:14:30;15.63;;;4.27;;
11731;SDS011;5922;53.734;10.258;2024-03-23T07:17:00;18.27;;;4.27;;
11731;SDS011;5922;53.734;10.258;2024-03-23T07:19:37;20.53;;;4.03;;
11731;SDS011;5922;53.734;10.258;2024-03-23T07:22:08;17.27;;;4.20;;
11731;SDS011;5922;53.734;10.258;2024-03-23T07:25:02;18.30;;;3.87;;
11731;SDS011;5922;53.734;10.258;2024-03-23T07:27:49;21.87;;;4.70;;
11731;SDS011;5922;53.734;10.258;2024-03-23T07:30:16;16.23;;;4.03;;
11731;SDS011;5922;53.734;10.258;2024-03-23T07:32:46;14.53;;;4.33;;
11731;SDS011;5922;53.734;10.258;2024-03-23T07:35:25;14.73;;;3.87;;
11731;SDS011;5922;53.734;10.258;2024-03-23T07:37:58;20.30;;;4.87;;
11731;SDS011;5922;53.734;10.258;2024-03-23T07:40:32;19.30;;;3.53;;
11731;SDS011;5922;53.734;10.258;2024-03-23T07:43:26;16.20;;;4.30;;
11731;SDS011;5922;53.734;10.258;2024-03-23T07:46:03;22.97;;;3.80;;
11731;SDS011;5922;53.734;10.258;2024-03-23T07:48:40;13.40;;;4.13;;
11731;SDS011;5922;53.734;10.258;2024-03-23T07:51:20;16.00;;;3.60;;
11731;SDS011;5922;53.734;10.258;2024-03-23T07:54:31;17.30;;;3.70;;
11731;SDS011;5922;53.734;10.258;2024-03-23T07:56:49;13.47;;;3.53;;
11731;SDS011;5922;53.734;10.258;2024-03-23T07:59:21;16.40;;;3.47;;
11731;SDS011;5922;53.734;10.258;2024-03-23T08:01:57;16.33;;;3.67;;
11731;SDS011;5922;53.734;10.258;2024-03-23T08:04:23;16.77;;;4.63;;
11731;SDS011;5922;53.734;10.258;2024-03-23T08:07:00;13.90;;;3.63;;
11731;SDS011;5922;53.734;10.258;2024-03-23T08:09:31;11.27;;;3.73;;
11731;SDS011;5922;53.734;10.258;2024-03-23T08:12:01;18.87;;;4.10;;
11731;SDS011;5922;53.734;10.258;2024-03-23T08:14:28;15.87;;;3.60;;
11731;SDS011;5922;53.734;10.258;2024-03-23T08:17:02;19.13;;;4.03;;
11731;SDS011;5922;53.734;10.258;2024-03-23T08:19:46;11.87;;;4.27;;
11731;SDS011;5922;53.734;10.258;2024-03-23T08:22:16;14.17;;;4.40;;
11731;SDS011;5922;53.734;10.258;2024-03-23T08:24:54;14.10;;;4.00;;
11731;SDS011;5922;53.734;10.258;2024-03-23T08:27:37;15.03;;;3.80;;
11731;SDS011;5922;53.734;10.258;2024-03-23T08:30:07;18.03;;;3.87;;
11731;SDS011;5922;53.734;10.258;2024-03-23T08:32:41;17.70;;;4.47;;
11731;SDS011;5922;53.734;10.258;2024-03-23T08:35:19;17.93;;;4.27;;
11731;SDS011;5922;53.734;10.258;2024-03-23T08:38:05;14.50;;;4.27;;
11731;SDS011;5922;53.734;10.258;2024-03-23T08:40:47;15.43;;;4.50;;
11731;SDS011;5922;53.734;10.258;2024-03-23T08:43:26;12.20;;;4.03;;
11731;SDS011;5922;53.734;10.258;2024-03-23T08:46:13;15.10;;;4.10;;
11731;SDS011;5922;53.734;10.258;2024-03-23T08:48:49;14.30;;;4.13;;
11731;SDS011;5922;53.734;10.258;2024-03-23T08:51:18;11.40;;;3.53;;
11731;SDS011;5922;53.734;10.258;2024-03-23T08:53:47;13.77;;;3.83;;
11731;SDS011;5922;53.734;10.258;2024-03-23T08:56:13;15.23;;;3.70;;
11731;SDS011;5922;53.734;10.258;2024-03-23T08:58:41;16.73;;;3.87;;
11731;SDS011;5922;53.734;10.258;2024-03-23T09:01:07;12.17;;;3.60;;
11731;SDS011;5922;53.734;10.258;2024-03-23T09:03:50;14.37;;;3.27;;
11731;SDS011;5922;53.734;10.258;2024-03-23T09:06:25;12.83;;;3.77;;
11731;SDS011;5922;53.734;10.258;2024-03-23T09:09:07;15.43;;;3.70;;
11731;SDS011;5922;53.734;10.258;2024-03-23T09:11:45;13.60;;;3.83;;
11731;SDS011;5922;53.734;10.258;2024-03-23T09:14:16;10.20;;;3.20;;
11731;SDS011;5922;53.734;10.258;2024-03-23T09:16:42;14.17;;;3.23;;
11731;SDS011;5922;53.734;10.258;2024-03-23T09:19:12;12.30;;;2.77;;
11731;SDS011;5922;53.734;10.258;2024-03-23T09:21:38;14.67;;;3.83;;
11731;SDS011;5922;53.734;10.258;2024-03-23T09:24:07;18.07;;;3.93;;
11731;SDS011;5922;53.734;10.258;2024-03-23T09:26:36;9.53;;;2.97;;
11731;SDS011;5922;53.734;10.258;2024-03-23T09:29:17;9.23;;;2.73;;
11731;SDS011;5922;53.734;10.258;2024-03-23T09:31:43;16.97;;;3.73;;
11731;SDS011;5922;53.734;10.258;2024-03-23T09:34:10;6.80;;;2.70;;
11731;SDS011;5922;53.734;10.258;2024-03-23T09:36:37;9.27;;;2.60;;
11731;SDS011;5922;53.734;10.258;2024-03-23T09:39:04;13.60;;;2.57;;
11731;SDS011;5922;53.734;10.258;2024-03-23T09:41:32;11.73;;;3.27;;
11731;SDS011;5922;53.734;10.258;2024-03-23T09:43:59;12.70;;;2.73;;
11731;SDS011;5922;53.734;10.258;2024-03-23T09:46:29;13.37;;;3.03;;
11731;SDS011;5922;53.734;10.258;2024-03-23T09:48:59;8.50;;;2.93;;
11731;SDS011;5922;53.734;10.258;2024-03-23T09:51:25;9.07;;;2.60;;
11731;SDS011;5922;53.734;10.258;2024-03-23T09:53:53;15.10;;;3.30;;
11731;SDS011;5922;53.734;10.258;2024-03-23T09:56:19;8.23;;;2.90;;
11731;SDS011;5922;53.734;10.258;2024-03-23T09:58:48;14.50;;;2.93;;
11731;SDS011;5922;53.734;10.258;2024-03-23T10:01:14;11.10;;;2.67;;
11731;SDS011;5922;53.734;10.258;2024-03-23T10:03:42;16.73;;;7.00;;
11731;SDS011;5922;53.734;10.258;2024-03-23T10:06:08;13.70;;;3.13;;
11731;SDS011;5922;53.734;10.258;2024-03-23T10:08:38;8.97;;;2.67;;
11731;SDS011;5922;53.734;10.258;2024-03-23T10:13:53;10.63;;;2.40;;
11731;SDS011;5922;53.734;10.258;2024-03-23T10:16:22;11.67;;;4.57;;
11731;SDS011;5922;53.734;10.258;2024-03-23T10:18:52;10.20;;;2.63;;
11731;SDS011;5922;53.734;10.258;2024-03-23T10:21:18;8.77;;;2.70;;
11731;SDS011;5922;53.734;10.258;2024-03-23T10:23:45;8.47;;;3.10;;
11731;SDS011;5922;53.734;10.258;2024-03-23T10:26:17;9.10;;;2.57;;
11731;SDS011;5922;53.734;10.258;2024-03-23T10:28:55;10.73;;;2.63;;
11731;SDS011;5922;53.734;10.258;2024-03-23T10:31:26;8.53;;;2.60;;
11731;SDS011;5922;53.734;10.258;2024-03-23T10:33:53;11.20;;;2.63;;
11731;SDS011;5922;53.734;10.258;2024-03-23T10:36:20;7.00;;;2.17;;
11731;SDS011;5922;53.734;10.258;2024-03-23T10:38:47;10.07;;;2.73;;
11731;SDS011;5922;53.734;10.258;2024-03-23T10:41:13;6.70;;;2.40;;
11731;SDS011;5922;53.734;10.258;2024-03-23T10:43:45;8.67;;;2.90;;
11731;SDS011;5922;53.734;10.258;2024-03-23T10:46:13;6.63;;;2.40;;
11731;SDS011;5922;53.734;10.258;2024-03-23T10:48:40;9.27;;;2.60;;
11731;SDS011;5922;53.734;10.258;2024-03-23T10:51:06;4.80;;;1.60;;
11731;SDS011;5922;53.734;10.258;2024-03-23T10:53:34;9.47;;;2.57;;
11731;SDS011;5922;53.734;10.258;2024-03-23T10:56:02;6.77;;;2.47;;
11731;SDS011;5922;53.734;10.258;2024-03-23T10:58:30;6.07;;;2.20;;
11731;SDS011;5922;53.734;10.258;2024-03-23T11:00:57;5.97;;;1.70;;
11731;SDS011;5922;53.734;10.258;2024-03-23T11:03:32;3.60;;;1.83;;
11731;SDS011;5922;53.734;10.258;2024-03-23T11:05:59;3.90;;;1.50;;
11731;SDS011;5922;53.734;10.258;2024-03-23T11:08:34;6.67;;;1.87;;
11731;SDS011;5922;53.734;10.258;2024-03-23T11:13:42;3.80;;;1.77;;
11731;SDS011;5922;53.734;10.258;2024-03-23T11:16:15;5.67;;;1.80;;
11731;SDS011;5922;53.734;10.258;2024-03-23T11:18:47;8.47;;;1.70;;
11731;SDS011;5922;53.734;10.258;2024-03-23T11:24:02;9.60;;;2.40;;
11731;SDS011;5922;53.734;10.258;2024-03-23T11:26:38;5.33;;;2.03;;
11731;SDS011;5922;53.734;10.258;2024-03-23T11:29:10;6.77;;;1.90;;
11731;SDS011;5922;53.734;10.258;2024-03-23T11:31:36;5.63;;;1.80;;
11731;SDS011;5922;53.734;10.258;2024-03-23T11:34:05;6.00;;;1.60;;
11731;SDS011;5922;53.734;10.258;2024-03-23T11:36:32;4.07;;;1.80;;
11731;SDS011;5922;53.734;10.258;2024-03-23T11:38:59;7.20;;;1.97;;
11731;SDS011;5922;53.734;10.258;2024-03-23T11:41:44;9.67;;;2.00;;
11731;SDS011;5922;53.734;10.258;2024-03-23T11:44:17;4.43;;;1.50;;
11731;SDS011;5922;53.734;10.258;2024-03-23T11:46:44;5.77;;;1.80;;
11731;SDS011;5922;53.734;10.258;2024-03-23T11:49:21;3.47;;;1.20;;
11731;SDS011;5922;53.734;10.258;2024-03-23T11:51:47;1.77;;;0.97;;
11731;SDS011;5922;53.734;10.258;2024-03-23T11:54:14;3.07;;;1.10;;
11731;SDS011;5922;53.734;10.258;2024-03-23T11:59:31;2.80;;;1.10;;
11731;SDS011;5922;53.734;10.258;2024-03-23T12:01:59;2.23;;;1.33;;
11731;SDS011;5922;53.734;10.258;2024-03-23T12:04:27;4.73;;;1.33;;
11731;SDS011;5922;53.734;10.258;2024-03-23T12:07:10;5.67;;;1.60;;
11731;SDS011;5922;53.734;10.258;2024-03-23T12:09:36;3.00;;;1.30;;
11731;SDS011;5922;53.734;10.258;2024-03-23T12:12:11;2.77;;;1.50;;
11731;SDS011;5922;53.734;10.258;2024-03-23T12:14:37;6.47;;;1.60;;
11731;SDS011;5922;53.734;10.258;2024-03-23T12:17:08;4.17;;;1.30;;
11731;SDS011;5922;53.734;10.258;2024-03-23T12:19:36;5.93;;;1.53;;
11731;SDS011;5922;53.734;10.258;2024-03-23T12:22:03;5.50;;;1.60;;
11731;SDS011;5922;53.734;10.258;2024-03-23T12:24:30;3.73;;;1.27;;
11731;SDS011;5922;53.734;10.258;2024-03-23T12:26:59;1.60;;;0.90;;
11731;SDS011;5922;53.734;10.258;2024-03-23T12:29:26;1.83;;;0.80;;
11731;SDS011;5922;53.734;10.258;2024-03-23T12:31:53;1.73;;;0.80;;
11731;SDS011;5922;53.734;10.258;2024-03-23T12:34:21;1.70;;;0.67;;
11731;SDS011;5922;53.734;10.258;2024-03-23T12:36:49;3.07;;;0.93;;
11731;SDS011;5922;53.734;10.258;2024-03-23T12:39:15;2.23;;;1.13;;
11731;SDS011;5922;53.734;10.258;2024-03-23T12:41:43;1.40;;;0.80;;
11731;SDS011;5922;53.734;10.258;2024-03-23T12:44:09;0.93;;;0.70;;
11731;SDS011;5922;53.734;10.258;2024-03-23T12:46:37;2.13;;;0.80;;
11731;SDS011;5922;53.734;10.258;2024-03-23T12:49:03;1.60;;;0.97;;
11731;SDS011;5922;53.734;10.258;2024-03-23T12:51:31;2.67;;;0.97;;
11731;SDS011;5922;53.734;10.258;2024-03-23T12:53:58;1.97;;;1.03;;
11731;SDS011;5922;53.734;10.258;2024-03-23T12:56:26;2.07;;;1.27;;
11731;SDS011;5922;53.734;10.258;2024-03-23T12:58:53;2.23;;;1.10;;
11731;SDS011;5922;53.734;10.258;2024-03-23T13:01:22;1.87;;;1.17;;
11731;SDS011;5922;53.734;10.258;2024-03-23T13:03:48;5.07;;;1.27;;
11731;SDS011;5922;53.734;10.258;2024-03-23T13:06:15;1.70;;;1.40;;
11731;SDS011;5922;53.734;10.258;2024-03-23T13:08:44;3.47;;;1.33;;
11731;SDS011;5922;53.734;10.258;2024-03-23T13:11:23;1.60;;;1.00;;
11731;SDS011;5922;53.734;10.258;2024-03-23T13:13:49;0.63;;;0.60;;
11731;SDS011;5922;53.734;10.258;2024-03-23T13:16:16;2.23;;;0.73;;
11731;SDS011;5922;53.734;10.258;2024-03-23T13:18:43;1.50;;;0.50;;
11731;SDS011;5922;53.734;10.258;2024-03-23T13:21:10;0.40;;;0.40;;
11731;SDS011;5922;53.734;10.258;2024-03-23T13:23:36;2.17;;;0.87;;
11731;SDS011;5922;53.734;10.258;2024-03-23T13:26:07;0.93;;;0.50;;
11731;SDS011;5922;53.734;10.258;2024-03-23T13:28:41;1.60;;;0.87;;
11731;SDS011;5922;53.734;10.258;2024-03-23T13:31:09;3.13;;;0.80;;
11731;SDS011;5922;53.734;10.258;2024-03-23T13:33:36;2.43;;;1.00;;
11731;SDS011;5922;53.734;10.258;2024-03-23T13:36:03;3.67;;;1.17;;
11731;SDS011;5922;53.734;10.258;2024-03-23T13:38:32;5.50;;;1.23;;
11731;SDS011;5922;53.734;10.258;2024-03-23T13:41:00;4.77;;;1.77;;
11731;SDS011;5922;53.734;10.258;2024-03-23T13:43:29;5.13;;;1.30;;
11731;SDS011;5922;53.734;10.258;2024-03-23T13:46:00;1.57;;;0.80;;
11731;SDS011;5922;53.734;10.258;2024-03-23T13:48:28;2.50;;;1.33;;
11731;SDS011;5922;53.734;10.258;2024-03-23T13:50:57;5.13;;;1.60;;
11731;SDS011;5922;53.734;10.258;2024-03-23T13:53:25;4.07;;;1.33;;
11731;SDS011;5922;53.734;10.258;2024-03-23T13:55:51;4.10;;;1.33;;
11731;SDS011;5922;53.734;10.258;2024-03-23T13:58:19;4.83;;;1.37;;
11731;SDS011;5922;53.734;10.258;2024-03-23T14:00:45;3.20;;;1.20;;
11731;SDS011;5922;53.734;10.258;2024-03-23T14:03:14;2.67;;;1.10;;
11731;SDS011;5922;53.734;10.258;2024-03-23T14:05:41;3.70;;;1.30;;
11731;SDS011;5922;53.734;10.258;2024-03-23T14:08:09;1.73;;;1.03;;
11731;SDS011;5922;53.734;10.258;2024-03-23T14:10:36;3.60;;;1.13;;
11731;SDS011;5922;53.734;10.258;2024-03-23T14:13:04;2.70;;;1.03;;
11731;SDS011;5922;53.734;10.258;2024-03-23T14:15:30;2.67;;;1.00;;
11731;SDS011;5922;53.734;10.258;2024-03-23T14:17:57;2.57;;;1.07;;
11731;SDS011;5922;53.734;10.258;2024-03-23T14:20:25;1.63;;;1.07;;
11731;SDS011;5922;53.734;10.258;2024-03-23T14:22:52;1.27;;;1.00;;
11731;SDS011;5922;53.734;10.258;2024-03-23T14:25:18;2.87;;;1.10;;
11731;SDS011;5922;53.734;10.258;2024-03-23T14:27:49;1.80;;;1.17;;
11731;SDS011;5922;53.734;10.258;2024-03-23T14:30:15;2.80;;;0.97;;
11731;SDS011;5922;53.734;10.258;2024-03-23T14:32:42;3.33;;;1.60;;
11731;SDS011;5922;53.734;10.258;2024-03-23T14:35:08;2.17;;;1.07;;
11731;SDS011;5922;53.734;10.258;2024-03-23T14:37:38;2.67;;;1.10;;
11731;SDS011;5922;53.734;10.258;2024-03-23T14:40:05;4.13;;;1.50;;
11731;SDS011;5922;53.734;10.258;2024-03-23T14:42:32;3.80;;;1.60;;
11731;SDS011;5922;53.734;10.258;2024-03-23T14:44:59;2.77;;;1.50;;
11731;SDS011;5922;53.734;10.258;2024-03-23T14:47:26;5.30;;;1.70;;
11731;SDS011;5922;53.734;10.258;2024-03-23T14:49:53;2.40;;;1.23;;
11731;SDS011;5922;53.734;10.258;2024-03-23T14:52:20;3.00;;;1.50;;
11731;SDS011;5922;53.734;10.258;2024-03-23T14:54:48;3.30;;;1.43;;
11731;SDS011;5922;53.734;10.258;2024-03-23T14:57:15;4.20;;;1.30;;
11731;SDS011;5922;53.734;10.258;2024-03-23T14:59:44;5.20;;;1.40;;
11731;SDS011;5922;53.734;10.258;2024-03-23T15:02:11;2.93;;;1.40;;
11731;SDS011;5922;53.734;10.258;2024-03-23T15:04:38;5.80;;;1.80;;
11731;SDS011;5922;53.734;10.258;2024-03-23T15:07:07;6.47;;;2.10;;
11731;SDS011;5922;53.734;10.258;2024-03-23T15:09:33;6.47;;;1.70;;
11731;SDS011;5922;53.734;10.258;2024-03-23T15:12:02;3.80;;;1.40;;
11731;SDS011;5922;53.734;10.258;2024-03-23T15:14:31;7.27;;;1.87;;
11731;SDS011;5922;53.734;10.258;2024-03-23T15:16:59;7.10;;;2.67;;
11731;SDS011;5922;53.734;10.258;2024-03-23T15:19:29;7.10;;;2.33;;
11731;SDS011;5922;53.734;10.258;2024-03-23T15:21:56;8.47;;;2.40;;
11731;SDS011;5922;53.734;10.258;2024-03-23T15:24:23;5.77;;;1.87;;
11731;SDS011;5922;53.734;10.258;2024-03-23T15:26:51;4.33;;;1.97;;
11731;SDS011;5922;53.734;10.258;2024-03-23T15:29:19;3.67;;;1.70;;
11731;SDS011;5922;53.734;10.258;2024-03-23T15:31:48;6.43;;;1.50;;
11731;SDS011;5922;53.734;10.258;2024-03-23T15:34:17;5.67;;;1.50;;
11731;SDS011;5922;53.734;10.258;2024-03-23T15:36:46;5.63;;;1.70;;
11731;SDS011;5922;53.734;10.258;2024-03-23T15:39:14;3.70;;;1.50;;
11731;SDS011;5922;53.734;10.258;2024-03-23T15:41:42;5.37;;;2.00;;
11731;SDS011;5922;53.734;10.258;2024-03-23T15:44:09;5.20;;;2.43;;
11731;SDS011;5922;53.734;10.258;2024-03-23T15:46:38;4.80;;;2.23;;
11731;SDS011;5922;53.734;10.258;2024-03-23T15:49:04;3.57;;;1.60;;
11731;SDS011;5922;53.734;10.258;2024-03-23T15:51:31;8.43;;;1.87;;
11731;SDS011;5922;53.734;10.258;2024-03-23T15:53:59;2.90;;;1.50;;
11731;SDS011;5922;53.734;10.258;2024-03-23T15:56:28;3.27;;;1.60;;
11731;SDS011;5922;53.734;10.258;2024-03-23T15:58:54;5.17;;;1.70;;
11731;SDS011;5922;53.734;10.258;2024-03-23T16:01:27;4.47;;;1.90;;
11731;SDS011;5922;53.734;10.258;2024-03-23T16:03:55;5.47;;;1.40;;